»·PEaware :: SWA956 KLGB-KOAK

SWA956 :: KLGB-KOAK

FLIGHT INFORMATION

Flight Status: Arrived
Operator:
Southwest Airlines
More flights by this operator :: More flights under this callsign
Pilot: Herb P. (797)
Aircraft: BOEING 737-800
(B738)
More flights by this aircraft type
Origin: KLGB Long Beach
United States
Destination: KOAK Metro Oakland Intl
United States
More flights between these airports :: More routes between these airports
Route: TOPMM4 COREZ RGOOD EMZOH3
File this flight plan on PilotEdge
Remarks:
Altitude:
(Current/Filed)
36,000ft
Speed:
(Current/Filed)
450kts
Departed: 29-Sep-22 10:46 AM
Arrived: 29-Sep-22 11:43 AM
Distance/Time
Traveled:
306nm/0:57
Distance/Time
To Go:
Arrived

Flight Plot

Page will automatically refresh every two minutes.

Flight plan parsing failed; only flown route is shown


Map Options




Map Legend


Flown Route
Filed Route
Departure Airport
Arrival Airport
Navaid (VOR, NDB)
Fix

Horizontal Profiles

Position Reports

Time Latitude Longitude Heading Altitude Ground
Speed
29-Sep-22 10:21 33.816979 -118.146108 90 41ft 0kts
29-Sep-22 10:24 33.816979 -118.146108 90 41ft 0kts
29-Sep-22 10:25 33.816979 -118.146108 90 41ft 0kts
29-Sep-22 10:26 33.816979 -118.146108 90 41ft 0kts
29-Sep-22 10:27 33.816979 -118.146108 90 41ft 0kts
29-Sep-22 10:28 33.816979 -118.146108 90 41ft 0kts
29-Sep-22 10:29 33.816979 -118.146108 90 41ft 0kts
29-Sep-22 10:30 33.816979 -118.146108 90 41ft 0kts
29-Sep-22 10:31 33.816979 -118.146108 90 41ft 0kts
29-Sep-22 10:32 33.816979 -118.146108 90 41ft 0kts
29-Sep-22 10:33 33.816979 -118.146108 90 41ft 0kts
29-Sep-22 10:34 33.816979 -118.146108 90 41ft 0kts
29-Sep-22 10:35 33.816979 -118.146108 90 41ft 0kts
29-Sep-22 10:36 33.816979 -118.146108 90 41ft 0kts
29-Sep-22 10:37 33.817121 -118.146458 146 42ft 2kts
29-Sep-22 10:38 33.817509 -118.146523 179 42ft 0kts
29-Sep-22 10:39 33.817509 -118.146523 179 42ft 0kts
29-Sep-22 10:40 33.817509 -118.146523 179 42ft 0kts
29-Sep-22 10:41 33.816787 -118.146965 192 42ft 12kts
29-Sep-22 10:42 33.811564 -118.141924 134 33ft 33kts
29-Sep-22 10:43 33.807858 -118.137650 176 31ft 0kts
29-Sep-22 10:44 33.807858 -118.137650 176 31ft 0kts
29-Sep-22 10:45 33.814323 -118.147174 315 43ft 149kts
29-Sep-22 10:46 33.849442 -118.197199 299 2402ft 252kts
29-Sep-22 10:47 33.868012 -118.280930 282 3007ft 258kts
29-Sep-22 10:48 33.884702 -118.365441 282 5696ft 269kts
29-Sep-22 10:49 33.913104 -118.449366 315 10003ft 290kts
29-Sep-22 10:50 33.984201 -118.500086 331 14139ft 310kts
29-Sep-22 10:51 34.065293 -118.539837 336 17895ft 323kts
29-Sep-22 10:52 34.151515 -118.575213 341 21445ft 336kts
29-Sep-22 10:53 34.244447 -118.608444 342 23075ft 372kts
29-Sep-22 10:54 34.342564 -118.643696 342 24220ft 362kts
29-Sep-22 10:55 34.434974 -118.682515 334 27605ft 353kts
29-Sep-22 10:56 34.519474 -118.739695 331 30489ft 347kts
29-Sep-22 10:57 34.598619 -118.795563 332 32880ft 343kts
29-Sep-22 10:58 34.678059 -118.851817 332 34968ft 341kts
29-Sep-22 10:59 34.760523 -118.910310 332 36179ft 359kts
29-Sep-22 11:00 34.853527 -118.976589 331 36149ft 415kts
29-Sep-22 11:01 34.957582 -119.051132 330 36109ft 434kts
29-Sep-22 11:02 35.060707 -119.125152 329 36118ft 431kts
29-Sep-22 11:03 35.163606 -119.199083 329 36119ft 432kts
29-Sep-22 11:04 35.266692 -119.273337 329 36118ft 430kts
29-Sep-22 11:05 35.369668 -119.347681 329 36118ft 430kts
29-Sep-22 11:06 35.472373 -119.422070 329 36112ft 431kts
29-Sep-22 11:07 35.572661 -119.502228 321 36111ft 430kts
29-Sep-22 11:08 35.665188 -119.595004 320 36109ft 430kts
29-Sep-22 11:09 35.757066 -119.688524 320 36112ft 431kts
29-Sep-22 11:10 35.849449 -119.783137 320 36119ft 432kts
29-Sep-22 11:11 35.939534 -119.880523 316 36117ft 431kts
29-Sep-22 11:13 36.025497 -119.982534 316 36119ft 430kts
29-Sep-22 11:14 36.111734 -120.084923 316 36119ft 430kts
29-Sep-22 11:15 36.197672 -120.187239 316 36117ft 428kts
29-Sep-22 11:16 36.283479 -120.289673 316 36121ft 428kts
29-Sep-22 11:17 36.366006 -120.388566 316 36122ft 400kts
29-Sep-22 11:18 36.445828 -120.484542 316 35237ft 397kts
29-Sep-22 11:19 36.524272 -120.579099 316 32676ft 391kts
29-Sep-22 11:20 36.604079 -120.669658 317 29982ft 387kts
29-Sep-22 11:21 36.686822 -120.761289 317 27669ft 406kts
29-Sep-22 11:22 36.767972 -120.851357 316 25502ft 377kts
29-Sep-22 11:23 36.846100 -120.938136 316 23536ft 378kts
29-Sep-22 11:24 36.921640 -121.021972 316 21487ft 354kts
29-Sep-22 11:25 36.996649 -121.105437 316 19419ft 355kts
29-Sep-22 11:26 37.067789 -121.184887 317 17360ft 337kts
29-Sep-22 11:27 37.136378 -121.261718 317 15419ft 341kts
29-Sep-22 11:28 37.203595 -121.340079 316 13461ft 320kts
29-Sep-22 11:29 37.268223 -121.415331 316 11586ft 323kts
29-Sep-22 11:30 37.329346 -121.486608 316 10514ft 275kts
29-Sep-22 11:31 37.383007 -121.549293 317 9649ft 269kts
29-Sep-22 11:32 37.437801 -121.612576 312 8295ft 264kts
29-Sep-22 11:33 37.480957 -121.686022 305 7039ft 258kts
29-Sep-22 11:34 37.522384 -121.759429 301 6474ft 252kts
29-Sep-22 11:35 37.539794 -121.843442 278 5647ft 250kts
29-Sep-22 11:35 37.547895 -121.914471 279 5148ft 230kts
29-Sep-22 11:37 37.558015 -121.999748 286 4459ft 201kts
29-Sep-22 11:38 37.593250 -122.051924 311 3361ft 188kts
29-Sep-22 11:39 37.624300 -122.098961 309 2384ft 158kts
29-Sep-22 11:39 37.646916 -122.132625 308 1708ft 149kts
29-Sep-22 11:40 37.673798 -122.172826 308 900ft 147kts
29-Sep-22 11:41 37.698964 -122.210281 308 164ft 131kts
29-Sep-22 11:43 37.710445 -122.226129 343 13ft 0kts
29-Sep-22 11:44 37.713466 -122.223150 72 13ft 28kts
29-Sep-22 11:44 37.711269 -122.216941 99 13ft 10kts

Navigation Log

Ident Type
Flight plan parsing failed, navigation log unavailable